sensor_id;sensor_type;location;lat;lon;timestamp;pressure;altitude;pressure_sealevel;temperature;humidity
34921;BME280;21128;50.016;20.002;2023-06-22T00:01:19;99033.17;;;21.28;91.08
34921;BME280;21128;50.016;20.002;2023-06-22T00:03:48;99034.81;;;21.29;90.40
34921;BME280;21128;50.016;20.002;2023-06-22T00:06:15;99046.33;;;21.29;90.29
34921;BME280;21128;50.016;20.002;2023-06-22T00:08:42;99063.36;;;21.35;90.28
34921;BME280;21128;50.016;20.002;2023-06-22T00:11:10;99057.02;;;21.36;90.38
34921;BME280;21128;50.016;20.002;2023-06-22T00:13:37;99060.69;;;21.35;91.08
34921;BME280;21128;50.016;20.002;2023-06-22T00:16:05;99061.52;;;21.35;90.49
34921;BME280;21128;50.016;20.002;2023-06-22T00:18:32;99070.17;;;21.38;91.65
34921;BME280;21128;50.016;20.002;2023-06-22T00:20:59;99069.95;;;21.32;91.26
34921;BME280;21128;50.016;20.002;2023-06-22T00:23:27;99065.60;;;21.25;91.86
34921;BME280;21128;50.016;20.002;2023-06-22T00:25:53;99070.55;;;21.21;91.70
34921;BME280;21128;50.016;20.002;2023-06-22T00:28:21;99073.43;;;21.20;92.03
34921;BME280;21128;50.016;20.002;2023-06-22T00:30:49;99059.84;;;21.15;91.57
34921;BME280;21128;50.016;20.002;2023-06-22T00:33:16;99054.92;;;21.12;91.85
34921;BME280;21128;50.016;20.002;2023-06-22T00:35:43;99057.77;;;21.10;91.77
34921;BME280;21128;50.016;20.002;2023-06-22T00:38:11;99051.21;;;21.06;91.71
34921;BME280;21128;50.016;20.002;2023-06-22T00:40:38;99043.41;;;21.04;92.49
34921;BME280;21128;50.016;20.002;2023-06-22T00:43:06;99037.24;;;21.04;93.15
34921;BME280;21128;50.016;20.002;2023-06-22T00:45:33;99032.29;;;21.01;93.05
34921;BME280;21128;50.016;20.002;2023-06-22T00:48:01;99030.25;;;20.96;94.77
34921;BME280;21128;50.016;20.002;2023-06-22T00:50:30;99030.63;;;20.93;94.68
34921;BME280;21128;50.016;20.002;2023-06-22T00:53:06;99029.41;;;20.89;96.00
34921;BME280;21128;50.016;20.002;2023-06-22T00:55:36;99034.75;;;20.89;96.24
34921;BME280;21128;50.016;20.002;2023-06-22T00:58:06;99030.01;;;20.85;95.87
34921;BME280;21128;50.016;20.002;2023-06-22T01:00:37;99029.81;;;20.79;96.44
34921;BME280;21128;50.016;20.002;2023-06-22T01:03:05;99016.03;;;20.76;97.14
34921;BME280;21128;50.016;20.002;2023-06-22T01:05:36;99023.63;;;20.72;97.07
34921;BME280;21128;50.016;20.002;2023-06-22T01:13:35;99018.08;;;20.61;97.36
34921;BME280;21128;50.016;20.002;2023-06-22T01:16:20;99023.19;;;20.56;97.56
34921;BME280;21128;50.016;20.002;2023-06-22T01:18:52;99017.62;;;20.50;98.29
34921;BME280;21128;50.016;20.002;2023-06-22T01:21:23;99013.72;;;20.46;98.64
34921;BME280;21128;50.016;20.002;2023-06-22T01:29:52;99011.62;;;20.35;99.89
34921;BME280;21128;50.016;20.002;2023-06-22T01:32:30;99010.80;;;20.35;100.00
34921;BME280;21128;50.016;20.002;2023-06-22T01:35:01;99012.20;;;20.31;100.00
34921;BME280;21128;50.016;20.002;2023-06-22T01:37:31;99022.27;;;20.29;100.00
34921;BME280;21128;50.016;20.002;2023-06-22T01:39:59;99016.10;;;20.28;100.00
34921;BME280;21128;50.016;20.002;2023-06-22T01:42:28;99031.09;;;20.29;100.00
34921;BME280;21128;50.016;20.002;2023-06-22T01:44:56;99025.95;;;20.28;100.00
34921;BME280;21128;50.016;20.002;2023-06-22T01:47:24;99026.98;;;20.27;100.00
34921;BME280;21128;50.016;20.002;2023-06-22T01:49:52;99031.47;;;20.26;100.00
34921;BME280;21128;50.016;20.002;2023-06-22T01:52:19;99035.16;;;20.25;100.00
34921;BME280;21128;50.016;20.002;2023-06-22T01:54:48;99036.80;;;20.19;100.00
34921;BME280;21128;50.016;20.002;2023-06-22T01:57:15;99035.13;;;20.12;100.00
34921;BME280;21128;50.016;20.002;2023-06-22T02:00:04;99030.16;;;20.09;100.00
34921;BME280;21128;50.016;20.002;2023-06-22T02:02:43;99030.78;;;20.04;100.00
34921;BME280;21128;50.016;20.002;2023-06-22T02:05:16;99024.42;;;20.05;100.00
34921;BME280;21128;50.016;20.002;2023-06-22T02:08:04;99024.22;;;20.07;100.00
34921;BME280;21128;50.016;20.002;2023-06-22T02:10:35;99025.23;;;20.06;100.00
34921;BME280;21128;50.016;20.002;2023-06-22T02:13:07;99027.91;;;20.06;100.00
34921;BME280;21128;50.016;20.002;2023-06-22T02:15:36;99020.52;;;20.08;100.00
34921;BME280;21128;50.016;20.002;2023-06-22T02:18:03;99017.23;;;20.06;100.00
34921;BME280;21128;50.016;20.002;2023-06-22T02:20:31;99030.16;;;20.02;100.00
34921;BME280;21128;50.016;20.002;2023-06-22T02:22:58;99036.89;;;19.98;100.00
34921;BME280;21128;50.016;20.002;2023-06-22T02:25:25;99030.73;;;19.98;100.00
34921;BME280;21128;50.016;20.002;2023-06-22T02:27:52;99030.94;;;19.96;100.00
34921;BME280;21128;50.016;20.002;2023-06-22T02:30:19;99036.48;;;19.94;100.00
34921;BME280;21128;50.016;20.002;2023-06-22T02:32:46;99039.10;;;19.88;100.00
34921;BME280;21128;50.016;20.002;2023-06-22T02:35:14;99038.23;;;19.81;100.00
34921;BME280;21128;50.016;20.002;2023-06-22T02:37:41;99040.48;;;19.77;100.00
34921;BME280;21128;50.016;20.002;2023-06-22T02:40:08;99036.34;;;19.75;100.00
34921;BME280;21128;50.016;20.002;2023-06-22T02:42:37;99039.22;;;19.73;100.00
34921;BME280;21128;50.016;20.002;2023-06-22T02:45:04;99045.82;;;19.77;100.00
34921;BME280;21128;50.016;20.002;2023-06-22T02:47:32;99055.27;;;19.80;100.00
34921;BME280;21128;50.016;20.002;2023-06-22T02:49:59;99052.19;;;19.83;100.00
34921;BME280;21128;50.016;20.002;2023-06-22T02:52:25;99048.70;;;19.82;100.00
34921;BME280;21128;50.016;20.002;2023-06-22T02:54:52;99049.93;;;19.80;100.00
34921;BME280;21128;50.016;20.002;2023-06-22T02:57:19;99055.27;;;19.80;100.00
34921;BME280;21128;50.016;20.002;2023-06-22T02:59:46;99056.70;;;19.82;100.00
34921;BME280;21128;50.016;20.002;2023-06-22T03:02:13;99057.73;;;19.81;100.00
34921;BME280;21128;50.016;20.002;2023-06-22T03:04:40;99060.19;;;19.83;100.00
34921;BME280;21128;50.016;20.002;2023-06-22T03:07:08;99067.61;;;19.87;100.00
34921;BME280;21128;50.016;20.002;2023-06-22T03:09:34;99064.95;;;19.87;100.00
34921;BME280;21128;50.016;20.002;2023-06-22T03:12:01;99062.50;;;19.92;100.00
34921;BME280;21128;50.016;20.002;2023-06-22T03:14:29;99065.16;;;19.92;100.00
34921;BME280;21128;50.016;20.002;2023-06-22T03:16:56;99061.88;;;19.90;100.00
34921;BME280;21128;50.016;20.002;2023-06-22T03:19:29;99063.30;;;19.86;100.00
34921;BME280;21128;50.016;20.002;2023-06-22T03:22:00;99057.11;;;19.79;100.00
34921;BME280;21128;50.016;20.002;2023-06-22T03:24:28;99067.72;;;19.73;100.00
34921;BME280;21128;50.016;20.002;2023-06-22T03:26:56;99075.92;;;19.71;100.00
34921;BME280;21128;50.016;20.002;2023-06-22T03:29:23;99075.92;;;19.71;100.00
34921;BME280;21128;50.016;20.002;2023-06-22T03:31:51;99081.25;;;19.71;100.00
34921;BME280;21128;50.016;20.002;2023-06-22T03:34:18;99083.92;;;19.71;100.00
34921;BME280;21128;50.016;20.002;2023-06-22T03:36:46;99092.54;;;19.73;100.00
34921;BME280;21128;50.016;20.002;2023-06-22T03:39:13;99085.81;;;19.77;100.00
34921;BME280;21128;50.016;20.002;2023-06-22T03:41:40;99088.08;;;19.80;100.00
34921;BME280;21128;50.016;20.002;2023-06-22T03:44:07;99085.66;;;19.85;100.00
34921;BME280;21128;50.016;20.002;2023-06-22T03:46:37;99086.48;;;19.86;100.00
34921;BME280;21128;50.016;20.002;2023-06-22T03:49:04;99089.77;;;19.88;100.00
34921;BME280;21128;50.016;20.002;2023-06-22T03:51:32;99086.48;;;19.86;100.00
34921;BME280;21128;50.016;20.002;2023-06-22T03:53:59;99083.16;;;19.84;100.00
34921;BME280;21128;50.016;20.002;2023-06-22T03:56:26;99087.26;;;19.80;100.00
34921;BME280;21128;50.016;20.002;2023-06-22T03:58:53;99096.84;;;19.74;100.00
34921;BME280;21128;50.016;20.002;2023-06-22T04:01:20;99107.66;;;19.66;100.00
34921;BME280;21128;50.016;20.002;2023-06-22T04:03:47;99108.98;;;19.55;100.00
34921;BME280;21128;50.016;20.002;2023-06-22T04:06:16;99112.81;;;19.46;100.00
34921;BME280;21128;50.016;20.002;2023-06-22T04:08:45;99106.20;;;19.42;100.00
34921;BME280;21128;50.016;20.002;2023-06-22T04:11:15;99105.38;;;19.41;100.00
34921;BME280;21128;50.016;20.002;2023-06-22T04:13:42;99109.33;;;19.46;100.00
34921;BME280;21128;50.016;20.002;2023-06-22T04:16:08;99100.56;;;19.52;100.00
34921;BME280;21128;50.016;20.002;2023-06-22T04:18:36;99103.48;;;19.57;100.00
34921;BME280;21128;50.016;20.002;2023-06-22T04:21:02;99111.13;;;19.60;100.00
34921;BME280;21128;50.016;20.002;2023-06-22T04:23:29;99111.97;;;19.67;100.00
34921;BME280;21128;50.016;20.002;2023-06-22T04:25:56;99113.67;;;19.75;100.00
34921;BME280;21128;50.016;20.002;2023-06-22T04:28:24;99108.86;;;19.91;100.00
34921;BME280;21128;50.016;20.002;2023-06-22T04:30:51;99112.02;;;20.02;100.00
34921;BME280;21128;50.016;20.002;2023-06-22T04:33:18;99111.86;;;20.10;100.00
34921;BME280;21128;50.016;20.002;2023-06-22T04:35:45;99119.88;;;20.16;100.00
34921;BME280;21128;50.016;20.002;2023-06-22T04:38:13;99118.04;;;20.17;100.00
34921;BME280;21128;50.016;20.002;2023-06-22T04:40:40;99126.48;;;20.20;100.00
34921;BME280;21128;50.016;20.002;2023-06-22T04:43:07;99122.23;;;20.33;100.00
34921;BME280;21128;50.016;20.002;2023-06-22T04:45:36;99122.47;;;20.38;100.00
34921;BME280;21128;50.016;20.002;2023-06-22T04:48:06;99132.81;;;20.47;100.00
34921;BME280;21128;50.016;20.002;2023-06-22T04:50:38;99141.47;;;20.56;100.00
34921;BME280;21128;50.016;20.002;2023-06-22T04:53:05;99135.75;;;20.66;100.00
34921;BME280;21128;50.016;20.002;2023-06-22T04:55:34;99140.33;;;20.78;100.00
34921;BME280;21128;50.016;20.002;2023-06-22T04:58:01;99133.17;;;20.86;100.00
34921;BME280;21128;50.016;20.002;2023-06-22T05:00:31;99132.59;;;21.03;100.00
34921;BME280;21128;50.016;20.002;2023-06-22T05:02:58;99135.50;;;21.22;100.00
34921;BME280;21128;50.016;20.002;2023-06-22T05:05:25;99125.05;;;21.33;100.00
34921;BME280;21128;50.016;20.002;2023-06-22T05:07:52;99126.94;;;21.53;100.00
34921;BME280;21128;50.016;20.002;2023-06-22T05:10:19;99131.44;;;21.66;100.00
34921;BME280;21128;50.016;20.002;2023-06-22T05:12:46;99139.25;;;21.74;100.00
34921;BME280;21128;50.016;20.002;2023-06-22T05:15:13;99146.25;;;21.75;100.00
34921;BME280;21128;50.016;20.002;2023-06-22T05:17:41;99145.61;;;21.86;100.00
34921;BME280;21128;50.016;20.002;2023-06-22T05:20:14;99138.40;;;22.06;100.00
34921;BME280;21128;50.016;20.002;2023-06-22T05:22:44;99140.02;;;22.27;100.00
34921;BME280;21128;50.016;20.002;2023-06-22T05:25:13;99147.00;;;22.35;99.91
34921;BME280;21128;50.016;20.002;2023-06-22T05:27:40;99148.23;;;22.39;99.98
34921;BME280;21128;50.016;20.002;2023-06-22T05:30:08;99144.66;;;22.58;99.62
34921;BME280;21128;50.016;20.002;2023-06-22T05:32:36;99146.23;;;22.79;99.44
34921;BME280;21128;50.016;20.002;2023-06-22T05:35:04;99147.58;;;23.01;98.79
34921;BME280;21128;50.016;20.002;2023-06-22T05:37:31;99138.94;;;22.99;95.73
34921;BME280;21128;50.016;20.002;2023-06-22T05:39:58;99140.22;;;22.90;95.52
34921;BME280;21128;50.016;20.002;2023-06-22T05:42:25;99143.03;;;23.02;95.56
34921;BME280;21128;50.016;20.002;2023-06-22T05:44:53;99150.00;;;23.10;94.49
34921;BME280;21128;50.016;20.002;2023-06-22T05:47:20;99157.75;;;23.24;94.28
34921;BME280;21128;50.016;20.002;2023-06-22T05:49:47;99157.05;;;23.36;93.40
34921;BME280;21128;50.016;20.002;2023-06-22T05:52:14;99153.47;;;23.48;93.54
34921;BME280;21128;50.016;20.002;2023-06-22T05:54:41;99154.00;;;23.64;93.04
34921;BME280;21128;50.016;20.002;2023-06-22T05:57:09;99161.92;;;23.77;92.47
34921;BME280;21128;50.016;20.002;2023-06-22T05:59:36;99156.00;;;23.93;91.77
34921;BME280;21128;50.016;20.002;2023-06-22T06:02:03;99163.23;;;23.93;90.83
34921;BME280;21128;50.016;20.002;2023-06-22T06:04:31;99160.05;;;24.02;90.75
34921;BME280;21128;50.016;20.002;2023-06-22T06:06:58;99164.36;;;24.03;89.12
34921;BME280;21128;50.016;20.002;2023-06-22T06:09:25;99173.38;;;23.91;88.28
34921;BME280;21128;50.016;20.002;2023-06-22T06:11:52;99171.39;;;23.79;88.75
34921;BME280;21128;50.016;20.002;2023-06-22T06:14:19;99183.66;;;23.94;89.54
34921;BME280;21128;50.016;20.002;2023-06-22T06:16:48;99181.15;;;23.99;88.32
34921;BME280;21128;50.016;20.002;2023-06-22T06:19:15;99178.61;;;24.04;88.28
34921;BME280;21128;50.016;20.002;2023-06-22T06:21:42;99185.14;;;24.14;87.92
34921;BME280;21128;50.016;20.002;2023-06-22T06:24:09;99185.73;;;24.17;87.15
34921;BME280;21128;50.016;20.002;2023-06-22T06:26:36;99182.36;;;24.21;87.43
34921;BME280;21128;50.016;20.002;2023-06-22T06:29:03;99184.95;;;24.34;87.27
34921;BME280;21128;50.016;20.002;2023-06-22T06:31:30;99186.00;;;24.52;86.98
34921;BME280;21128;50.016;20.002;2023-06-22T06:33:57;99194.23;;;24.57;86.30
34921;BME280;21128;50.016;20.002;2023-06-22T06:36:24;99189.73;;;24.51;85.11
34921;BME280;21128;50.016;20.002;2023-06-22T06:38:51;99194.65;;;24.35;85.09
34921;BME280;21128;50.016;20.002;2023-06-22T06:41:19;99196.59;;;24.47;86.08
34921;BME280;21128;50.016;20.002;2023-06-22T06:43:46;99192.29;;;24.64;85.89
34921;BME280;21128;50.016;20.002;2023-06-22T06:46:13;99190.55;;;24.69;85.61
34921;BME280;21128;50.016;20.002;2023-06-22T06:48:40;99193.91;;;24.83;84.84
34921;BME280;21128;50.016;20.002;2023-06-22T06:51:07;99185.54;;;24.91;84.43
34921;BME280;21128;50.016;20.002;2023-06-22T06:53:37;99188.97;;;24.98;84.13
34921;BME280;21128;50.016;20.002;2023-06-22T06:56:05;99188.15;;;24.98;83.77
34921;BME280;21128;50.016;20.002;2023-06-22T06:58:32;99188.15;;;24.98;83.06
34921;BME280;21128;50.016;20.002;2023-06-22T07:00:59;99191.19;;;25.02;83.16
34921;BME280;21128;50.016;20.002;2023-06-22T07:03:26;99194.33;;;25.17;82.50
34921;BME280;21128;50.016;20.002;2023-06-22T07:05:53;99193.86;;;25.20;82.63
34921;BME280;21128;50.016;20.002;2023-06-22T07:08:20;99195.33;;;25.34;82.99
34921;BME280;21128;50.016;20.002;2023-06-22T07:10:47;99191.44;;;25.30;81.65
34921;BME280;21128;50.016;20.002;2023-06-22T07:13:14;99179.75;;;25.24;81.61
34921;BME280;21128;50.016;20.002;2023-06-22T07:15:41;99177.17;;;25.30;81.94
34921;BME280;21128;50.016;20.002;2023-06-22T07:18:08;99177.33;;;25.46;81.26
34921;BME280;21128;50.016;20.002;2023-06-22T07:20:35;99180.16;;;25.51;81.15
34921;BME280;21128;50.016;20.002;2023-06-22T07:23:02;99186.84;;;25.61;81.56
34921;BME280;21128;50.016;20.002;2023-06-22T07:25:30;99177.18;;;25.71;80.78
34921;BME280;21128;50.016;20.002;2023-06-22T07:28:02;99178.50;;;25.92;81.13
34921;BME280;21128;50.016;20.002;2023-06-22T07:30:31;99176.05;;;26.02;79.71
34921;BME280;21128;50.016;20.002;2023-06-22T07:32:59;99177.33;;;26.12;79.46
34921;BME280;21128;50.016;20.002;2023-06-22T07:35:30;99172.77;;;26.24;79.33
34921;BME280;21128;50.016;20.002;2023-06-22T07:37:57;99180.83;;;26.35;79.29
34921;BME280;21128;50.016;20.002;2023-06-22T07:40:25;99169.72;;;26.32;77.70
34921;BME280;21128;50.016;20.002;2023-06-22T07:42:52;99167.13;;;26.14;77.19
34921;BME280;21128;50.016;20.002;2023-06-22T07:45:19;99162.82;;;26.01;77.27
34921;BME280;21128;50.016;20.002;2023-06-22T07:47:47;99165.14;;;25.97;77.73
34921;BME280;21128;50.016;20.002;2023-06-22T07:50:14;99163.98;;;25.93;77.45
34921;BME280;21128;50.016;20.002;2023-06-22T07:52:40;99163.41;;;25.91;77.16
34921;BME280;21128;50.016;20.002;2023-06-22T07:55:08;99156.39;;;25.90;77.63
34921;BME280;21128;50.016;20.002;2023-06-22T07:57:35;99163.86;;;26.12;78.38
34921;BME280;21128;50.016;20.002;2023-06-22T08:00:04;99165.60;;;26.29;77.63
34921;BME280;21128;50.016;20.002;2023-06-22T08:02:44;99168.63;;;26.56;77.59
34921;BME280;21128;50.016;20.002;2023-06-22T08:05:13;99165.88;;;26.80;76.33
34921;BME280;21128;50.016;20.002;2023-06-22T08:07:41;99173.02;;;26.86;75.20
34921;BME280;21128;50.016;20.002;2023-06-22T08:10:12;99174.41;;;26.88;74.40
34921;BME280;21128;50.016;20.002;2023-06-22T08:12:40;99184.75;;;26.80;73.46
34921;BME280;21128;50.016;20.002;2023-06-22T08:15:08;99184.29;;;26.83;74.38
34921;BME280;21128;50.016;20.002;2023-06-22T08:17:37;99173.94;;;26.91;73.16
34921;BME280;21128;50.016;20.002;2023-06-22T08:20:06;99179.53;;;27.02;73.56
34921;BME280;21128;50.016;20.002;2023-06-22T08:22:36;99184.64;;;27.15;73.03
34921;BME280;21128;50.016;20.002;2023-06-22T08:25:04;99180.42;;;27.19;71.73
34921;BME280;21128;50.016;20.002;2023-06-22T08:27:31;99178.92;;;27.11;71.44
34921;BME280;21128;50.016;20.002;2023-06-22T08:29:59;99176.48;;;27.10;71.64
34921;BME280;21128;50.016;20.002;2023-06-22T08:32:30;99178.15;;;27.28;71.92
34921;BME280;21128;50.016;20.002;2023-06-22T08:34:59;99179.66;;;27.52;71.55
34921;BME280;21128;50.016;20.002;2023-06-22T08:37:26;99186.02;;;27.46;68.84
34921;BME280;21128;50.016;20.002;2023-06-22T08:39:59;99187.98;;;27.34;69.51
34921;BME280;21128;50.016;20.002;2023-06-22T08:42:27;99183.86;;;27.31;69.27
34921;BME280;21128;50.016;20.002;2023-06-22T08:44:55;99186.52;;;27.43;68.17
34921;BME280;21128;50.016;20.002;2023-06-22T08:47:22;99183.42;;;27.51;67.68
34921;BME280;21128;50.016;20.002;2023-06-22T08:49:49;99182.25;;;27.75;68.76
34921;BME280;21128;50.016;20.002;2023-06-22T08:52:18;99182.64;;;28.01;67.92
34921;BME280;21128;50.016;20.002;2023-06-22T08:54:47;99179.86;;;27.79;65.97
34921;BME280;21128;50.016;20.002;2023-06-22T08:57:14;99193.41;;;27.51;66.35
34921;BME280;21128;50.016;20.002;2023-06-22T08:59:42;99199.59;;;27.34;66.79
34921;BME280;21128;50.016;20.002;2023-06-22T09:02:09;99205.70;;;27.30;67.21
34921;BME280;21128;50.016;20.002;2023-06-22T09:04:36;99198.95;;;27.44;66.60
34921;BME280;21128;50.016;20.002;2023-06-22T09:07:03;99192.95;;;27.70;66.49
34921;BME280;21128;50.016;20.002;2023-06-22T09:09:30;99200.48;;;28.02;66.12
34921;BME280;21128;50.016;20.002;2023-06-22T09:11:57;99187.20;;;28.17;65.71
34921;BME280;21128;50.016;20.002;2023-06-22T09:14:24;99184.84;;;28.04;63.60
34921;BME280;21128;50.016;20.002;2023-06-22T09:16:51;99182.16;;;27.70;64.64
34921;BME280;21128;50.016;20.002;2023-06-22T09:19:18;99194.02;;;27.41;64.49
34921;BME280;21128;50.016;20.002;2023-06-22T09:21:45;99193.41;;;27.22;65.44
34921;BME280;21128;50.016;20.002;2023-06-22T09:24:12;99198.73;;;27.17;65.39
34921;BME280;21128;50.016;20.002;2023-06-22T09:26:39;99192.34;;;27.23;66.17
34921;BME280;21128;50.016;20.002;2023-06-22T09:29:06;99181.44;;;27.46;66.84
34921;BME280;21128;50.016;20.002;2023-06-22T09:31:33;99182.16;;;27.87;66.06
34921;BME280;21128;50.016;20.002;2023-06-22T09:34:00;99188.25;;;28.16;65.44
34921;BME280;21128;50.016;20.002;2023-06-22T09:36:27;99188.03;;;28.35;64.37
34921;BME280;21128;50.016;20.002;2023-06-22T09:38:54;99181.94;;;28.44;62.37
34921;BME280;21128;50.016;20.002;2023-06-22T09:41:25;99184.30;;;28.41;63.26
34921;BME280;21128;50.016;20.002;2023-06-22T09:43:52;99183.44;;;28.57;62.84
34921;BME280;21128;50.016;20.002;2023-06-22T09:46:19;99183.19;;;28.80;62.51
34921;BME280;21128;50.016;20.002;2023-06-22T09:48:48;99184.29;;;29.01;61.85
34921;BME280;21128;50.016;20.002;2023-06-22T09:51:15;99182.89;;;28.99;60.31
34921;BME280;21128;50.016;20.002;2023-06-22T09:53:42;99183.01;;;28.87;59.54
34921;BME280;21128;50.016;20.002;2023-06-22T09:56:09;99181.00;;;28.99;60.53
34921;BME280;21128;50.016;20.002;2023-06-22T09:58:45;99175.56;;;29.21;59.42
34921;BME280;21128;50.016;20.002;2023-06-22T10:01:13;99181.49;;;29.18;59.74
34921;BME280;21128;50.016;20.002;2023-06-22T10:03:43;99173.11;;;29.20;59.96
34921;BME280;21128;50.016;20.002;2023-06-22T10:06:10;99179.23;;;29.37;59.98
34921;BME280;21128;50.016;20.002;2023-06-22T10:08:37;99180.84;;;29.60;59.70
34921;BME280;21128;50.016;20.002;2023-06-22T10:11:06;99182.14;;;29.89;59.14
34921;BME280;21128;50.016;20.002;2023-06-22T10:13:33;99182.14;;;29.89;57.73
34921;BME280;21128;50.016;20.002;2023-06-22T10:15:59;99186.20;;;29.55;57.36
34921;BME280;21128;50.016;20.002;2023-06-22T10:18:26;99167.97;;;29.18;57.94
34921;BME280;21128;50.016;20.002;2023-06-22T10:20:54;99174.75;;;29.21;58.67
34921;BME280;21128;50.016;20.002;2023-06-22T10:23:20;99171.12;;;29.37;57.97
34921;BME280;21128;50.016;20.002;2023-06-22T10:25:47;99171.05;;;29.59;58.33
34921;BME280;21128;50.016;20.002;2023-06-22T10:28:14;99182.02;;;29.74;58.44
34921;BME280;21128;50.016;20.002;2023-06-22T10:30:42;99173.39;;;29.77;57.07
34921;BME280;21128;50.016;20.002;2023-06-22T10:33:09;99170.20;;;29.85;56.39
34921;BME280;21128;50.016;20.002;2023-06-22T10:35:37;99184.72;;;29.74;55.38
34921;BME280;21128;50.016;20.002;2023-06-22T10:38:05;99170.04;;;29.38;55.80
34921;BME280;21128;50.016;20.002;2023-06-22T10:40:32;99164.80;;;29.26;56.60
34921;BME280;21128;50.016;20.002;2023-06-22T10:42:59;99162.20;;;29.41;56.82
34921;BME280;21128;50.016;20.002;2023-06-22T10:45:26;99160.48;;;29.57;56.35
34921;BME280;21128;50.016;20.002;2023-06-22T10:47:54;99165.88;;;29.89;56.58
34921;BME280;21128;50.016;20.002;2023-06-22T10:50:21;99153.62;;;30.14;55.39
34921;BME280;21128;50.016;20.002;2023-06-22T10:52:50;99163.91;;;30.12;54.06
34921;BME280;21128;50.016;20.002;2023-06-22T10:55:17;99147.95;;;29.83;53.18
34921;BME280;21128;50.016;20.002;2023-06-22T10:57:45;99139.83;;;29.83;54.33
34921;BME280;21128;50.016;20.002;2023-06-22T11:00:14;99137.31;;;30.09;54.62
34921;BME280;21128;50.016;20.002;2023-06-22T11:02:42;99143.36;;;30.21;54.51
34921;BME280;21128;50.016;20.002;2023-06-22T11:05:10;99142.23;;;30.17;52.69
34921;BME280;21128;50.016;20.002;2023-06-22T11:07:38;99133.92;;;29.91;53.41
34921;BME280;21128;50.016;20.002;2023-06-22T11:10:06;99139.98;;;30.04;54.30
34921;BME280;21128;50.016;20.002;2023-06-22T11:12:33;99137.91;;;30.16;53.71
34921;BME280;21128;50.016;20.002;2023-06-22T11:15:00;99138.86;;;29.99;53.32
34921;BME280;21128;50.016;20.002;2023-06-22T11:17:27;99131.69;;;29.78;53.65
34921;BME280;21128;50.016;20.002;2023-06-22T11:19:54;99125.53;;;29.93;53.67
34921;BME280;21128;50.016;20.002;2023-06-22T11:22:21;99121.88;;;30.09;54.11
34921;BME280;21128;50.016;20.002;2023-06-22T11:24:48;99121.22;;;30.39;54.18
34921;BME280;21128;50.016;20.002;2023-06-22T11:27:15;99111.61;;;30.74;53.88
34921;BME280;21128;50.016;20.002;2023-06-22T11:29:42;99119.83;;;31.04;53.05
34921;BME280;21128;50.016;20.002;2023-06-22T11:32:09;99113.87;;;31.13;52.09
34921;BME280;21128;50.016;20.002;2023-06-22T11:34:36;99113.10;;;31.37;52.16
34921;BME280;21128;50.016;20.002;2023-06-22T11:37:03;99112.27;;;31.42;51.61
34921;BME280;21128;50.016;20.002;2023-06-22T11:39:30;99114.45;;;31.30;51.52
34921;BME280;21128;50.016;20.002;2023-06-22T11:41:57;99107.30;;;30.93;50.66
34921;BME280;21128;50.016;20.002;2023-06-22T11:44:23;99113.83;;;31.02;51.24
34921;BME280;21128;50.016;20.002;2023-06-22T11:46:51;99109.55;;;31.27;51.06
34921;BME280;21128;50.016;20.002;2023-06-22T11:49:17;99097.88;;;31.57;50.45
34921;BME280;21128;50.016;20.002;2023-06-22T11:51:44;99105.20;;;31.51;49.37
34921;BME280;21128;50.016;20.002;2023-06-22T11:54:11;99092.20;;;31.38;49.57
34921;BME280;21128;50.016;20.002;2023-06-22T11:56:38;99091.09;;;31.49;50.13
34921;BME280;21128;50.016;20.002;2023-06-22T11:59:05;99093.24;;;31.68;49.97
34921;BME280;21128;50.016;20.002;2023-06-22T12:01:32;99084.55;;;31.86;50.24
34921;BME280;21128;50.016;20.002;2023-06-22T12:04:00;99081.79;;;32.01;49.40
34921;BME280;21128;50.016;20.002;2023-06-22T12:06:27;99084.22;;;32.08;48.85
34921;BME280;21128;50.016;20.002;2023-06-22T12:08:54;99086.41;;;32.06;48.94
34921;BME280;21128;50.016;20.002;2023-06-22T12:11:21;99089.41;;;31.99;48.91
34921;BME280;21128;50.016;20.002;2023-06-22T12:13:48;99081.02;;;31.90;48.81
34921;BME280;21128;50.016;20.002;2023-06-22T12:16:15;99077.69;;;32.09;48.98
34921;BME280;21128;50.016;20.002;2023-06-22T12:18:42;99085.79;;;32.29;48.03
34921;BME280;21128;50.016;20.002;2023-06-22T12:21:08;99083.16;;;31.99;47.47
34921;BME280;21128;50.016;20.002;2023-06-22T12:23:35;99087.28;;;31.65;47.58
34921;BME280;21128;50.016;20.002;2023-06-22T12:26:02;99085.13;;;31.42;48.31
34921;BME280;21128;50.016;20.002;2023-06-22T12:28:29;99087.84;;;31.42;48.16
34921;BME280;21128;50.016;20.002;2023-06-22T12:30:56;99085.66;;;31.44;47.88
34921;BME280;21128;50.016;20.002;2023-06-22T12:33:23;99082.39;;;31.12;47.86
34921;BME280;21128;50.016;20.002;2023-06-22T12:35:50;99073.68;;;30.99;48.44
34921;BME280;21128;50.016;20.002;2023-06-22T12:38:17;99078.03;;;31.16;49.01
34921;BME280;21128;50.016;20.002;2023-06-22T12:40:44;99073.18;;;31.33;49.05
34921;BME280;21128;50.016;20.002;2023-06-22T12:43:13;99070.47;;;31.33;48.19
34921;BME280;21128;50.016;20.002;2023-06-22T12:45:40;99068.82;;;31.12;48.28
34921;BME280;21128;50.016;20.002;2023-06-22T12:48:07;99066.91;;;31.07;48.78
34921;BME280;21128;50.016;20.002;2023-06-22T12:50:35;99061.52;;;31.22;49.12
34921;BME280;21128;50.016;20.002;2023-06-22T12:53:02;99059.88;;;31.42;48.70
34921;BME280;21128;50.016;20.002;2023-06-22T12:55:30;99060.12;;;31.65;48.75
34921;BME280;21128;50.016;20.002;2023-06-22T12:57:58;99048.69;;;31.89;48.43
34921;BME280;21128;50.016;20.002;2023-06-22T13:00:24;99052.95;;;32.10;48.08
34921;BME280;21128;50.016;20.002;2023-06-22T13:02:51;99047.73;;;32.24;47.30